createdAt,value
2023-04-09T00:02:02.944Z,101547.38
2023-04-09T00:04:31.206Z,101526.53
2023-04-09T00:06:59.272Z,101527.34
2023-04-09T00:09:26.868Z,101536.06
2023-04-09T00:11:55.992Z,101520.44
2023-04-09T00:14:24.233Z,101529.16
2023-04-09T00:16:51.791Z,101523.06
2023-04-09T00:19:19.853Z,101531.81
2023-04-09T00:21:47.547Z,101531.84
2023-04-09T00:24:15.199Z,101524.00
2023-04-09T00:26:42.906Z,101518.78
2023-04-09T00:29:12.010Z,101524.00
2023-04-09T00:31:39.573Z,101522.28
2023-04-09T00:34:07.389Z,101506.66
2023-04-09T00:36:36.345Z,101527.50
2023-04-09T00:39:03.996Z,101526.66
2023-04-09T00:41:34.973Z,101529.25
2023-04-09T00:44:02.652Z,101525.78
2023-04-09T00:46:34.990Z,101529.22
2023-04-09T00:49:02.666Z,101525.75
2023-04-09T00:51:30.362Z,101525.72
2023-04-09T00:53:58.231Z,101512.69
2023-04-09T00:56:27.176Z,101507.44
2023-04-09T00:58:55.720Z,101499.63
2023-04-09T01:01:23.708Z,101510.03
2023-04-09T01:03:54.084Z,101506.50
2023-04-09T01:06:28.300Z,101510.81
2023-04-09T01:09:03.825Z,101509.91
2023-04-09T01:11:42.473Z,101503.81
2023-04-09T01:14:20.912Z,101509.06
2023-04-09T01:16:55.880Z,101483.78
2023-04-09T01:19:41.946Z,101492.50
2023-04-09T01:22:25.481Z,101493.38
2023-04-09T01:25:04.468Z,101504.69
2023-04-09T01:27:43.959Z,101503.00
2023-04-09T01:30:15.912Z,101499.53
2023-04-09T01:32:44.520Z,101493.44
2023-04-09T01:35:13.929Z,101496.03
2023-04-09T01:37:42.274Z,101489.97
2023-04-09T01:40:11.596Z,101496.03
2023-04-09T01:42:41.197Z,101502.16
2023-04-09T01:45:11.218Z,101504.75
2023-04-09T01:47:40.840Z,101504.75
2023-04-09T01:50:09.453Z,101506.50
2023-04-09T01:52:37.358Z,101509.97
2023-04-09T01:55:06.029Z,101490.00
2023-04-09T01:57:33.710Z,101505.66
2023-04-09T02:00:04.956Z,101500.41
2023-04-09T02:02:42.933Z,101485.66
2023-04-09T02:05:18.584Z,101492.63
2023-04-09T02:07:52.892Z,101501.31
2023-04-09T02:10:24.429Z,101484.81
2023-04-09T02:12:53.514Z,101505.63
2023-04-09T02:15:22.403Z,101496.97
2023-04-09T02:17:51.194Z,101491.75
2023-04-09T02:20:20.437Z,101505.69
2023-04-09T02:22:48.227Z,101502.22
2023-04-09T02:25:15.826Z,101499.63
2023-04-09T02:27:43.618Z,101506.59
2023-04-09T02:30:12.002Z,101503.97
2023-04-09T02:32:39.754Z,101501.34
2023-04-09T02:35:08.461Z,101503.97
2023-04-09T02:37:39.456Z,101498.75
2023-04-09T02:40:07.996Z,101501.34
2023-04-09T02:42:35.921Z,101494.44
2023-04-09T02:45:03.804Z,101504.84
2023-04-09T02:47:39.024Z,101510.06
2023-04-09T02:50:07.980Z,101509.19
2023-04-09T02:52:35.629Z,101496.19
2023-04-09T02:55:05.634Z,101522.25
2023-04-09T02:57:33.755Z,101513.59
2023-04-09T03:00:01.818Z,101521.41
2023-04-09T03:02:29.870Z,101511.81
2023-04-09T03:04:57.683Z,101510.13
2023-04-09T03:07:25.275Z,101510.97
2023-04-09T03:09:52.987Z,101521.41
2023-04-09T03:12:22.740Z,101528.41
2023-04-09T03:14:50.321Z,101529.25
2023-04-09T03:17:18.215Z,101525.81
2023-04-09T03:19:46.944Z,101527.56
2023-04-09T03:22:14.480Z,101527.53
2023-04-09T03:24:42.287Z,101534.47
2023-04-09T03:27:10.307Z,101528.41
2023-04-09T03:29:46.568Z,101533.63
2023-04-09T03:32:15.963Z,101530.13
2023-04-09T03:34:44.869Z,101531.88
2023-04-09T03:37:12.474Z,101520.56
2023-04-09T03:39:40.684Z,101532.75
2023-04-09T03:42:12.310Z,101538.81
2023-04-09T03:44:40.072Z,101547.50
2023-04-09T03:47:09.222Z,101550.09
2023-04-09T03:49:37.337Z,101544.00
2023-04-09T03:52:06.563Z,101530.91
2023-04-09T03:54:34.557Z,101543.00
2023-04-09T03:57:02.306Z,101534.19
2023-04-09T03:59:32.929Z,101525.28
2023-04-09T04:02:10.134Z,101505.94
2023-04-09T04:04:38.132Z,101491.13
2023-04-09T04:07:06.403Z,101500.78
2023-04-09T04:09:37.011Z,101499.00
2023-04-09T04:12:04.906Z,101504.13
2023-04-09T04:14:35.797Z,101491.56
2023-04-09T04:17:03.406Z,101471.03
2023-04-09T04:19:32.408Z,101466.66
2023-04-09T04:22:00.268Z,101457.16
2023-04-09T04:24:28.456Z,101448.97
2023-04-09T04:26:55.974Z,101451.44
2023-04-09T04:29:24.060Z,101450.06
2023-04-09T04:31:52.134Z,101439.50
2023-04-09T04:34:19.732Z,101448.25
2023-04-09T04:36:49.225Z,101459.66
2023-04-09T04:39:18.473Z,101446.75
2023-04-09T04:41:46.657Z,101455.13
2023-04-09T04:44:14.528Z,101452.38
2023-04-09T04:46:42.162Z,101447.41
2023-04-09T04:49:11.114Z,101458.13
2023-04-09T04:51:38.938Z,101448.53
2023-04-09T04:54:08.342Z,101448.28
2023-04-09T04:56:36.006Z,101452.31
2023-04-09T04:59:08.086Z,101440.94
2023-04-09T05:01:35.830Z,101457.06
2023-04-09T05:04:04.417Z,101459.16
2023-04-09T05:06:32.312Z,101448.84
2023-04-09T05:08:59.874Z,101458.56
2023-04-09T05:11:31.724Z,101468.31
2023-04-09T05:14:02.433Z,101466.69
2023-04-09T05:16:30.740Z,101468.88
2023-04-09T05:18:58.330Z,101468.41
2023-04-09T05:21:26.051Z,101476.00
2023-04-09T05:23:55.850Z,101476.38
2023-04-09T05:26:23.988Z,101470.94
2023-04-09T05:28:54.084Z,101478.09
2023-04-09T05:31:25.084Z,101473.88
2023-04-09T05:33:52.644Z,101476.06
2023-04-09T05:36:20.880Z,101469.41
2023-04-09T05:38:55.912Z,101479.50
2023-04-09T05:41:24.265Z,101467.69
2023-04-09T05:43:53.454Z,101482.25
2023-04-09T05:46:25.535Z,101483.66
2023-04-09T05:48:53.589Z,101482.41
2023-04-09T05:51:21.638Z,101483.81
2023-04-09T05:53:50.040Z,101481.53
2023-04-09T05:56:19.067Z,101486.97
2023-04-09T05:58:46.626Z,101500.03
2023-04-09T06:01:17.136Z,101491.28
2023-04-09T06:03:45.016Z,101501.06
2023-04-09T06:06:13.203Z,101500.53
2023-04-09T06:08:41.745Z,101508.56
2023-04-09T06:11:09.872Z,101507.44
2023-04-09T06:13:37.456Z,101504.09
2023-04-09T06:16:16.330Z,101515.28
2023-04-09T06:18:44.591Z,101514.59
2023-04-09T06:21:12.168Z,101516.69
2023-04-09T06:23:40.737Z,101505.31
2023-04-09T06:26:09.085Z,101513.56
2023-04-09T06:28:36.633Z,101522.34
2023-04-09T06:31:04.418Z,101523.41
2023-04-09T06:33:34.463Z,101511.84
2023-04-09T06:36:02.032Z,101523.81
2023-04-09T06:38:29.937Z,101517.63
2023-04-09T06:40:57.698Z,101529.69
2023-04-09T06:43:28.845Z,101535.88
2023-04-09T06:45:58.397Z,101529.69
2023-04-09T06:48:26.108Z,101538.34
2023-04-09T06:50:55.898Z,101541.31
2023-04-09T06:53:24.079Z,101528.69
2023-04-09T06:55:54.444Z,101533.22
2023-04-09T06:58:24.247Z,101536.78
2023-04-09T07:00:52.222Z,101523.13
2023-04-09T07:03:28.306Z,101523.69
2023-04-09T07:05:58.648Z,101525.44
2023-04-09T07:08:26.356Z,101524.63
2023-04-09T07:11:02.264Z,101531.78
2023-04-09T07:13:34.432Z,101532.91
2023-04-09T07:16:02.116Z,101520.69
2023-04-09T07:18:32.013Z,101527.13
2023-04-09T07:21:03.347Z,101523.13
2023-04-09T07:23:34.979Z,101515.38
2023-04-09T07:26:04.534Z,101515.44
2023-04-09T07:28:33.534Z,101526.72
2023-04-09T07:31:01.924Z,101512.13
2023-04-09T07:33:49.393Z,101519.50
2023-04-09T07:36:19.305Z,101500.28
2023-04-09T07:38:46.963Z,101517.53
2023-04-09T07:41:17.484Z,101511.03
2023-04-09T07:43:46.110Z,101517.13
2023-04-09T07:46:19.056Z,101511.72
2023-04-09T07:48:48.482Z,101512.63
2023-04-09T07:51:20.800Z,101512.91
2023-04-09T07:53:53.806Z,101519.72
2023-04-09T07:56:21.749Z,101512.59
2023-04-09T07:58:49.525Z,101495.16
2023-04-09T08:01:19.893Z,101514.81
2023-04-09T08:03:48.172Z,101506.66
2023-04-09T08:06:16.076Z,101510.63
2023-04-09T08:08:46.114Z,101519.53
2023-04-09T08:11:16.609Z,101513.41
2023-04-09T08:13:44.305Z,101499.50
2023-04-09T08:16:15.555Z,101495.31
2023-04-09T08:18:43.103Z,101499.66
2023-04-09T08:21:11.032Z,101502.66
2023-04-09T08:23:38.890Z,101504.81
2023-04-09T08:26:08.977Z,101507.97
2023-04-09T08:28:39.821Z,101494.47
2023-04-09T08:31:09.114Z,101504.22
2023-04-09T08:33:37.209Z,101505.59
2023-04-09T08:36:08.819Z,101505.00
2023-04-09T08:38:37.085Z,101500.47
2023-04-09T08:41:05.835Z,101502.53
2023-04-09T08:43:53.192Z,101505.38
2023-04-09T08:46:24.885Z,101496.19
2023-04-09T08:48:53.410Z,101484.66
2023-04-09T08:51:23.612Z,101495.69
2023-04-09T08:53:56.376Z,101496.31
2023-04-09T08:56:24.612Z,101487.50
2023-04-09T08:58:55.139Z,101472.97
2023-04-09T09:01:24.589Z,101482.38
2023-04-09T09:03:55.699Z,101483.81
2023-04-09T09:06:27.029Z,101475.56
2023-04-09T09:09:10.388Z,101476.50
2023-04-09T09:11:40.172Z,101479.41
2023-04-09T09:14:12.264Z,101465.75
2023-04-09T09:17:06.616Z,101467.94
2023-04-09T09:19:34.660Z,101461.91
2023-04-09T09:22:05.173Z,101454.56
2023-04-09T09:24:33.992Z,101458.75
2023-04-09T09:27:01.904Z,101467.50
2023-04-09T09:29:31.227Z,101459.47
2023-04-09T09:31:58.998Z,101456.00
2023-04-09T09:34:28.947Z,101451.38
2023-04-09T09:36:57.541Z,101464.00
2023-04-09T09:39:43.431Z,101470.63
2023-04-09T09:42:11.320Z,101462.53
2023-04-09T09:44:41.835Z,101461.28
2023-04-09T09:47:12.246Z,101461.31
2023-04-09T09:49:40.229Z,101461.72
2023-04-09T09:52:10.228Z,101450.06
2023-04-09T09:54:41.542Z,101463.44
2023-04-09T09:57:10.527Z,101460.06
2023-04-09T09:59:48.021Z,101458.88
2023-04-09T10:02:20.877Z,101464.06
2023-04-09T10:04:50.358Z,101457.97
2023-04-09T10:07:21.875Z,101458.59
2023-04-09T10:09:53.095Z,101455.63
2023-04-09T10:12:22.233Z,101457.28
2023-04-09T10:14:51.745Z,101455.31
2023-04-09T10:17:20.162Z,101442.50
2023-04-09T10:19:56.060Z,101453.41
2023-04-09T10:22:27.176Z,101456.94
2023-04-09T10:24:55.376Z,101459.97
2023-04-09T10:27:23.563Z,101461.31
2023-04-09T10:29:52.694Z,101450.69
2023-04-09T10:32:22.838Z,101447.00
2023-04-09T10:35:10.501Z,101462.00
2023-04-09T10:37:48.667Z,101456.88
2023-04-09T10:40:21.614Z,101458.34
2023-04-09T10:42:50.354Z,101452.56
2023-04-09T10:45:24.842Z,101449.25
2023-04-09T10:47:54.080Z,101444.66
2023-04-09T10:50:26.209Z,101440.09
2023-04-09T10:52:56.708Z,101438.97
2023-04-09T10:55:36.202Z,101451.13
2023-04-09T10:58:13.270Z,101441.06
2023-04-09T11:00:48.150Z,101438.13
2023-04-09T11:03:23.356Z,101443.22
2023-04-09T11:06:02.440Z,101441.00
2023-04-09T11:08:31.797Z,101425.69
2023-04-09T11:11:02.303Z,101431.75
2023-04-09T11:13:31.767Z,101438.94
2023-04-09T11:16:06.866Z,101429.25
2023-04-09T11:18:46.827Z,101426.47
2023-04-09T11:21:20.015Z,101440.03
2023-04-09T11:23:52.207Z,101428.00
2023-04-09T11:26:34.995Z,101441.25
2023-04-09T11:29:07.274Z,101434.91
2023-04-09T11:31:44.964Z,101432.16
2023-04-09T11:34:32.540Z,101437.81
2023-04-09T11:37:02.070Z,101435.31
2023-04-09T11:39:31.074Z,101435.53
2023-04-09T11:41:59.895Z,101426.47
2023-04-09T11:44:45.365Z,101441.59
2023-04-09T11:47:32.082Z,101419.75
2023-04-09T11:50:03.124Z,101439.66
2023-04-09T11:52:37.346Z,101443.84
2023-04-09T11:55:11.482Z,101437.94
2023-04-09T11:57:47.238Z,101439.63
2023-04-09T12:00:17.361Z,101438.53
2023-04-09T12:03:03.129Z,101440.44
2023-04-09T12:05:50.583Z,101437.28
2023-04-09T12:08:23.791Z,101436.81
2023-04-09T12:11:08.607Z,101435.69
2023-04-09T12:13:43.723Z,101425.03
2023-04-09T12:16:15.128Z,101445.41
2023-04-09T12:19:03.343Z,101445.22
2023-04-09T12:21:46.183Z,101440.69
2023-04-09T12:24:16.102Z,101438.16
2023-04-09T12:26:48.521Z,101442.66
2023-04-09T12:29:19.100Z,101435.44
2023-04-09T12:31:51.108Z,101434.75
2023-04-09T12:34:21.624Z,101434.50
2023-04-09T12:36:55.364Z,101434.09
2023-04-09T12:39:24.125Z,101439.25
2023-04-09T12:41:55.506Z,101434.31
2023-04-09T12:44:23.123Z,101438.19
2023-04-09T12:46:54.783Z,101435.72
2023-04-09T12:49:24.073Z,101438.63
2023-04-09T12:51:51.626Z,101432.44
2023-04-09T12:54:21.764Z,101429.41
2023-04-09T12:56:50.811Z,101431.28
2023-04-09T12:59:22.695Z,101434.22
2023-04-09T13:01:51.158Z,101433.31
2023-04-09T13:04:18.789Z,101413.78
2023-04-09T13:06:48.460Z,101427.00
2023-04-09T13:09:16.535Z,101426.88
2023-04-09T13:11:44.417Z,101412.34
2023-04-09T13:14:14.341Z,101446.22
2023-04-09T13:16:42.423Z,101446.03
2023-04-09T13:19:16.221Z,101448.19
2023-04-09T13:21:46.237Z,101450.66
2023-04-09T13:24:16.703Z,101442.84
2023-04-09T13:26:44.817Z,101447.38
2023-04-09T13:29:12.537Z,101449.91
2023-04-09T13:31:43.276Z,101450.22
2023-04-09T13:34:18.501Z,101447.72
2023-04-09T13:36:50.697Z,101452.81
2023-04-09T13:39:20.783Z,101447.91
2023-04-09T13:41:51.040Z,101450.34
2023-04-09T13:44:19.131Z,101441.91
2023-04-09T13:46:47.577Z,101433.44
2023-04-09T13:49:16.072Z,101426.56
2023-04-09T13:51:44.510Z,101424.47
2023-04-09T13:54:12.972Z,101428.66
2023-04-09T13:56:42.343Z,101427.78
2023-04-09T13:59:12.609Z,101425.72
2023-04-09T14:01:40.303Z,101422.56
2023-04-09T14:04:08.363Z,101425.16
2023-04-09T14:06:37.584Z,101410.88
2023-04-09T14:09:05.487Z,101417.06
2023-04-09T14:11:33.923Z,101396.56
2023-04-09T14:14:04.870Z,101410.44
2023-04-09T14:16:32.574Z,101421.50
2023-04-09T14:19:03.248Z,101409.47
2023-04-09T14:21:33.954Z,101407.56
2023-04-09T14:24:01.685Z,101400.53
2023-04-09T14:26:29.475Z,101403.28
2023-04-09T14:28:57.325Z,101399.13
2023-04-09T14:31:34.548Z,101400.78
2023-04-09T14:34:08.220Z,101392.91
2023-04-09T14:36:38.504Z,101398.09
2023-04-09T14:39:10.030Z,101391.16
2023-04-09T14:41:46.505Z,101388.06
2023-04-09T14:44:15.828Z,101380.31
2023-04-09T14:46:45.595Z,101380.31
2023-04-09T14:49:15.945Z,101382.91
2023-04-09T14:51:45.115Z,101388.00
2023-04-09T14:54:14.262Z,101374.72
2023-04-09T14:56:46.751Z,101380.94
2023-04-09T14:59:16.347Z,101389.09
2023-04-09T15:01:53.327Z,101388.19
2023-04-09T15:04:33.602Z,101383.56
2023-04-09T15:07:02.153Z,101388.16
2023-04-09T15:09:30.052Z,101387.00
2023-04-09T15:11:58.080Z,101386.03
2023-04-09T15:14:34.038Z,101391.50
2023-04-09T15:17:12.323Z,101374.66
2023-04-09T15:19:41.546Z,101381.81
2023-04-09T15:22:16.570Z,101382.88
2023-04-09T15:24:58.119Z,101385.91
2023-04-09T15:27:26.020Z,101373.16
2023-04-09T15:29:54.686Z,101370.84
2023-04-09T15:32:25.305Z,101373.66
2023-04-09T15:34:56.566Z,101385.03
2023-04-09T15:37:30.437Z,101386.69
2023-04-09T15:39:58.135Z,101389.38
2023-04-09T15:42:26.125Z,101389.25
2023-04-09T15:44:55.382Z,101380.47
2023-04-09T15:47:25.483Z,101374.34
2023-04-09T15:49:59.519Z,101376.09
2023-04-09T15:52:27.534Z,101388.44
2023-04-09T15:54:56.322Z,101383.19
2023-04-09T15:57:27.118Z,101376.34
2023-04-09T15:59:54.988Z,101370.41
2023-04-09T16:02:26.313Z,101381.03
2023-04-09T16:04:57.076Z,101366.53
2023-04-09T16:07:24.806Z,101372.63
2023-04-09T16:09:54.848Z,101372.81
2023-04-09T16:12:26.370Z,101378.28
2023-04-09T16:15:08.441Z,101376.59
2023-04-09T16:17:40.673Z,101375.13
2023-04-09T16:20:09.570Z,101373.47
2023-04-09T16:22:41.030Z,101388.59
2023-04-09T16:25:10.006Z,101380.94
2023-04-09T16:27:43.682Z,101383.72
2023-04-09T16:30:12.282Z,101390.97
2023-04-09T16:32:48.688Z,101380.75
2023-04-09T16:35:21.301Z,101388.03
2023-04-09T16:38:02.712Z,101389.16
2023-04-09T16:40:46.475Z,101391.97
2023-04-09T16:43:18.384Z,101390.22
2023-04-09T16:45:49.726Z,101392.81
2023-04-09T16:48:37.502Z,101392.94
2023-04-09T16:51:13.082Z,101393.91
2023-04-09T16:53:45.425Z,101399.25
2023-04-09T16:56:20.975Z,101386.28
2023-04-09T16:58:48.924Z,101394.16
2023-04-09T17:01:20.947Z,101396.88
2023-04-09T17:03:51.329Z,101389.09
2023-04-09T17:06:19.441Z,101399.63
2023-04-09T17:08:51.226Z,101413.69
2023-04-09T17:11:20.249Z,101411.28
2023-04-09T17:13:55.100Z,101406.25
2023-04-09T17:16:25.610Z,101405.69
2023-04-09T17:18:55.104Z,101404.91
2023-04-09T17:21:27.547Z,101422.38
2023-04-09T17:24:04.888Z,101432.97
2023-04-09T17:26:34.179Z,101434.06
2023-04-09T17:29:01.917Z,101447.97
2023-04-09T17:31:31.932Z,101441.03
2023-04-09T17:34:21.069Z,101455.13
2023-04-09T17:36:49.465Z,101449.03
2023-04-09T17:39:19.094Z,101452.69
2023-04-09T17:41:47.953Z,101464.13
2023-04-09T17:44:23.972Z,101472.91
2023-04-09T17:46:55.224Z,101473.84
2023-04-09T17:49:25.469Z,101475.69
2023-04-09T17:51:56.753Z,101481.84
2023-04-09T17:54:32.886Z,101460.19
2023-04-09T17:57:10.555Z,101484.50
2023-04-09T17:59:48.384Z,101480.13
2023-04-09T18:02:18.202Z,101491.44
2023-04-09T18:04:53.738Z,101483.69
2023-04-09T18:07:21.702Z,101483.69
2023-04-09T18:09:52.230Z,101495.81
2023-04-09T18:12:20.788Z,101487.16
2023-04-09T18:14:59.873Z,101500.28
2023-04-09T18:17:27.629Z,101495.97
2023-04-09T18:19:57.144Z,101492.63
2023-04-09T18:22:25.353Z,101499.56
2023-04-09T18:24:53.232Z,101499.59
2023-04-09T18:27:21.199Z,101499.56
2023-04-09T18:29:50.702Z,101502.16
2023-04-09T18:32:18.613Z,101493.63
2023-04-09T18:34:47.260Z,101501.56
2023-04-09T18:37:17.574Z,101490.47
2023-04-09T18:39:46.327Z,101500.00
2023-04-09T18:42:19.395Z,101496.69
2023-04-09T18:44:50.328Z,101506.19
2023-04-09T18:47:18.718Z,101487.94
2023-04-09T18:49:46.887Z,101496.59
2023-04-09T18:52:18.327Z,101508.75
2023-04-09T18:54:53.065Z,101494.91
2023-04-09T18:57:20.710Z,101499.19
2023-04-09T18:59:49.420Z,101506.25
2023-04-09T19:02:17.282Z,101495.00
2023-04-09T19:04:47.500Z,101497.53
2023-04-09T19:07:15.538Z,101501.03
2023-04-09T19:09:46.138Z,101497.56
2023-04-09T19:12:15.248Z,101482.94
2023-04-09T19:14:43.273Z,101499.38
2023-04-09T19:17:13.269Z,101505.41
2023-04-09T19:19:40.827Z,101508.97
2023-04-09T19:22:09.736Z,101502.91
2023-04-09T19:24:37.616Z,101497.66
2023-04-09T19:27:09.768Z,101509.84
2023-04-09T19:29:38.035Z,101508.06
2023-04-09T19:32:12.174Z,101506.31
2023-04-09T19:34:42.170Z,101505.47
2023-04-09T19:37:09.754Z,101508.03
2023-04-09T19:39:37.380Z,101512.34
2023-04-09T19:42:06.383Z,101511.50
2023-04-09T19:44:40.621Z,101508.88
2023-04-09T19:47:10.766Z,101505.34
2023-04-09T19:49:38.677Z,101517.47
2023-04-09T19:52:06.820Z,101514.84
2023-04-09T19:54:38.629Z,101519.22
2023-04-09T19:57:14.623Z,101507.06
2023-04-09T19:59:44.256Z,101514.13
2023-04-09T20:02:18.781Z,101507.16
2023-04-09T20:04:46.534Z,101516.69
2023-04-09T20:07:14.214Z,101507.13
2023-04-09T20:09:41.759Z,101502.84
2023-04-09T20:12:11.324Z,101495.94
2023-04-09T20:14:39.063Z,101497.72
2023-04-09T20:17:12.557Z,101512.50
2023-04-09T20:19:41.410Z,101516.03
2023-04-09T20:22:09.203Z,101519.53
2023-04-09T20:24:43.357Z,101505.69
2023-04-09T20:27:10.917Z,101520.38
2023-04-09T20:29:38.496Z,101518.72
2023-04-09T20:32:13.510Z,101506.59
2023-04-09T20:34:41.984Z,101524.75
2023-04-09T20:37:09.883Z,101526.53
2023-04-09T20:39:39.026Z,101526.63
2023-04-09T20:42:06.781Z,101524.91
2023-04-09T20:44:34.373Z,101522.41
2023-04-09T20:47:02.222Z,101519.88
2023-04-09T20:49:32.092Z,101520.81
2023-04-09T20:52:08.140Z,101516.53
2023-04-09T20:54:37.963Z,101523.50
2023-04-09T20:57:05.594Z,101520.97
2023-04-09T20:59:34.853Z,101511.41
2023-04-09T21:02:03.644Z,101513.31
2023-04-09T21:04:32.929Z,101499.44
2023-04-09T21:07:01.675Z,101507.28
2023-04-09T21:09:29.486Z,101493.47
2023-04-09T21:12:02.981Z,101511.63
2023-04-09T21:14:31.840Z,101512.56
2023-04-09T21:17:00.081Z,101517.84
2023-04-09T21:19:28.029Z,101519.59
2023-04-09T21:22:00.315Z,101522.22
2023-04-09T21:24:28.123Z,101520.50
2023-04-09T21:26:55.690Z,101517.97
2023-04-09T21:29:23.641Z,101500.53
2023-04-09T21:31:51.710Z,101509.25
2023-04-09T21:34:19.259Z,101509.28
2023-04-09T21:36:46.943Z,101504.06
2023-04-09T21:39:16.044Z,101511.88
2023-04-09T21:41:43.710Z,101511.03
2023-04-09T21:44:11.990Z,101484.97
2023-04-09T21:46:40.126Z,101504.09
2023-04-09T21:49:07.817Z,101512.78
2023-04-09T21:51:35.893Z,101523.22
2023-04-09T21:54:04.306Z,101524.94
2023-04-09T21:56:34.423Z,101530.13
2023-04-09T21:59:05.100Z,101511.88
2023-04-09T22:01:32.744Z,101530.16
2023-04-09T22:04:05.291Z,101533.63
2023-04-09T22:06:34.800Z,101530.13
2023-04-09T22:09:03.391Z,101529.25
2023-04-09T22:11:32.906Z,101534.44
2023-04-09T22:14:00.917Z,101528.34
2023-04-09T22:16:28.685Z,101521.34
2023-04-09T22:18:56.767Z,101525.75
2023-04-09T22:21:29.930Z,101517.88
2023-04-09T22:23:59.180Z,101510.00
2023-04-09T22:26:26.934Z,101520.44
2023-04-09T22:28:56.572Z,101514.38
2023-04-09T22:31:26.527Z,101504.75
2023-04-09T22:33:54.377Z,101510.00
2023-04-09T22:36:23.225Z,101509.09
2023-04-09T22:38:51.178Z,101506.50
2023-04-09T22:41:19.084Z,101491.69
2023-04-09T22:43:46.799Z,101509.16
2023-04-09T22:46:16.152Z,101496.16
2023-04-09T22:48:45.112Z,101511.84
2023-04-09T22:51:13.098Z,101502.31
2023-04-09T22:53:42.528Z,101503.22
2023-04-09T22:56:10.352Z,101513.63
2023-04-09T22:58:38.364Z,101512.75
2023-04-09T23:01:06.582Z,101509.25
2023-04-09T23:03:35.861Z,101488.34
2023-04-09T23:06:04.137Z,101495.28
2023-04-09T23:08:31.729Z,101488.34
2023-04-09T23:11:00.238Z,101497.91
2023-04-09T23:13:33.080Z,101490.94
2023-04-09T23:16:03.898Z,101490.88
2023-04-09T23:18:32.280Z,101492.63
2023-04-09T23:21:05.004Z,101485.72
2023-04-09T23:23:32.913Z,101492.63
2023-04-09T23:26:01.070Z,101485.69
2023-04-09T23:28:29.349Z,101479.63
2023-04-09T23:30:57.102Z,101486.59
2023-04-09T23:33:25.271Z,101491.75
2023-04-09T23:35:53.039Z,101470.94
2023-04-09T23:38:22.465Z,101477.88
2023-04-09T23:40:50.655Z,101470.09
2023-04-09T23:43:18.356Z,101477.06
2023-04-09T23:45:47.874Z,101475.34
2023-04-09T23:48:15.541Z,101473.59
2023-04-09T23:50:45.452Z,101479.72
2023-04-09T23:53:13.197Z,101458.81
2023-04-09T23:55:42.149Z,101467.50
2023-04-09T23:58:11.602Z,101465.69
